Ostermarsch — V2DO7 — position and weather

sailwx.info

Track history (hours):
 
Tides and Currents Weather Stations Pressure Air Temp Water Temp Dewpoint Dewpoint Depression Visibility Wind Speed Wind Dir Waves Ship Positions

Ostermarsch

Last reported at 2018-Jun-12 15:58 UTC. Time now 2018-Jun-25 00:42 UTC.
Position N 51°27' E 002°15'.
Warning: this ship's position is 12 days out of date.

MMSI: 305283616.

Date/timePositionNaut miles runAvg speedWind from/ knotsBaromVisibWave heightAir tempDewpointWater temp
2018-Jun-12 15:58N 51°27' E 002°15'16311.3
2018-Jun-12 01:31N 50°04' W 001°26'0 8.8
2018-Jun-12 01:30N 50°03' W 001°26'6 8.4
2018-Jun-12 00:45N 50°02' W 001°36'2 8.0
2018-Jun-12 00:30N 50°01' W 001°38'4 7.8
2018-Jun-12 00:00N 50°00' W 001°44'4 7.6
2018-Jun-11 23:30N 49°59' W 001°50'  
2018-Jun-09 02:31N 39°03' W 009°51'012.5
2018-Jun-09 02:29N 39°03' W 009°51'611.8
2018-Jun-09 02:00N 38°57' W 009°51'1911.4
2018-Jun-09 00:22N 38°39' W 009°49'  
2018-Jun-06 19:44N 37°34' W 000°34'512.0
2018-Jun-06 19:20N 37°38' W 000°30'24511.7
2018-Jun-05 22:23N 41°11' E 002°07'410.0
2018-Jun-05 21:59N 41°15' E 002°09'4 9.3
2018-Jun-05 21:30N 41°19' E 002°10'  
Track history (hours):
 
Tides and Currents Weather Stations Pressure Air Temp Water Temp Dewpoint Dewpoint Depression Visibility Wind Speed Wind Dir Waves Ship Positions

Ostermarsch

Last reported at 2018-Jun-12 15:58 UTC. Time now 2018-Jun-25 00:42 UTC.
Position N 51°27' E 002°15'.
Warning: this ship's position is 12 days out of date.

MMSI: 305283616.

Date/timePositionNaut miles runAvg speedWind from/ knotsBaromVisibWave heightAir tempDewpointWater temp
2018-Jun-12 15:58N 51°27' E 002°15'16311.3
2018-Jun-12 01:31N 50°04' W 001°26'0 8.8
2018-Jun-12 01:30N 50°03' W 001°26'6 8.4
2018-Jun-12 00:45N 50°02' W 001°36'2 8.0
2018-Jun-12 00:30N 50°01' W 001°38'4 7.8
2018-Jun-12 00:00N 50°00' W 001°44'4 7.6
2018-Jun-11 23:30N 49°59' W 001°50'  
2018-Jun-09 02:31N 39°03' W 009°51'012.5
2018-Jun-09 02:29N 39°03' W 009°51'611.8
2018-Jun-09 02:00N 38°57' W 009°51'1911.4
2018-Jun-09 00:22N 38°39' W 009°49'  
2018-Jun-06 19:44N 37°34' W 000°34'512.0
2018-Jun-06 19:20N 37°38' W 000°30'24511.7
2018-Jun-05 22:23N 41°11' E 002°07'410.0
2018-Jun-05 21:59N 41°15' E 002°09'4 9.3
2018-Jun-05 21:30N 41°19' E 002°10'  

Dump ship's entire track history